sensor_id;sensor_type;location;lat;lon;timestamp;temperature;humidity
5461;DHT22;2753;49.196;8.286;2023-12-22T00:01:12;8.70;99.90
5461;DHT22;2753;49.196;8.286;2023-12-22T00:03:41;8.70;99.90
5461;DHT22;2753;49.196;8.286;2023-12-22T00:06:07;8.70;99.90
5461;DHT22;2753;49.196;8.286;2023-12-22T00:08:33;8.70;99.90
5461;DHT22;2753;49.196;8.286;2023-12-22T00:10:59;8.70;99.90
5461;DHT22;2753;49.196;8.286;2023-12-22T00:13:25;8.70;99.90
5461;DHT22;2753;49.196;8.286;2023-12-22T00:15:50;8.70;99.90
5461;DHT22;2753;49.196;8.286;2023-12-22T00:18:16;8.70;99.90
5461;DHT22;2753;49.196;8.286;2023-12-22T00:20:42;8.70;99.90
5461;DHT22;2753;49.196;8.286;2023-12-22T00:23:07;8.70;99.90
5461;DHT22;2753;49.196;8.286;2023-12-22T00:25:33;8.70;99.90
5461;DHT22;2753;49.196;8.286;2023-12-22T00:27:59;8.70;99.90
5461;DHT22;2753;49.196;8.286;2023-12-22T00:30:24;8.70;99.90
5461;DHT22;2753;49.196;8.286;2023-12-22T00:32:50;8.70;99.90
5461;DHT22;2753;49.196;8.286;2023-12-22T00:35:16;8.70;99.90
5461;DHT22;2753;49.196;8.286;2023-12-22T00:37:42;8.70;99.90
5461;DHT22;2753;49.196;8.286;2023-12-22T00:40:08;8.70;99.90
5461;DHT22;2753;49.196;8.286;2023-12-22T00:42:35;8.70;99.90
5461;DHT22;2753;49.196;8.286;2023-12-22T00:45:00;8.70;99.90
5461;DHT22;2753;49.196;8.286;2023-12-22T00:47:26;8.70;99.90
5461;DHT22;2753;49.196;8.286;2023-12-22T00:49:52;8.70;99.90
5461;DHT22;2753;49.196;8.286;2023-12-22T00:52:17;8.70;99.90
5461;DHT22;2753;49.196;8.286;2023-12-22T00:54:43;8.70;99.90
5461;DHT22;2753;49.196;8.286;2023-12-22T00:57:09;8.70;99.90
5461;DHT22;2753;49.196;8.286;2023-12-22T00:59:35;8.60;99.90
5461;DHT22;2753;49.196;8.286;2023-12-22T01:02:00;8.60;99.90
5461;DHT22;2753;49.196;8.286;2023-12-22T01:04:26;8.60;99.90
5461;DHT22;2753;49.196;8.286;2023-12-22T01:06:52;8.60;99.90
5461;DHT22;2753;49.196;8.286;2023-12-22T01:09:18;8.60;99.90
5461;DHT22;2753;49.196;8.286;2023-12-22T01:11:45;8.60;99.90
5461;DHT22;2753;49.196;8.286;2023-12-22T01:14:11;8.60;99.90
5461;DHT22;2753;49.196;8.286;2023-12-22T01:16:39;8.60;99.90
5461;DHT22;2753;49.196;8.286;2023-12-22T01:19:04;8.60;99.90
5461;DHT22;2753;49.196;8.286;2023-12-22T01:21:31;8.60;99.90
5461;DHT22;2753;49.196;8.286;2023-12-22T01:23:56;8.60;99.90
5461;DHT22;2753;49.196;8.286;2023-12-22T01:26:24;8.60;99.90
5461;DHT22;2753;49.196;8.286;2023-12-22T01:28:50;8.50;99.90
5461;DHT22;2753;49.196;8.286;2023-12-22T01:31:16;8.50;99.90
5461;DHT22;2753;49.196;8.286;2023-12-22T01:33:41;8.60;99.90
5461;DHT22;2753;49.196;8.286;2023-12-22T01:36:08;8.60;99.90
5461;DHT22;2753;49.196;8.286;2023-12-22T01:38:33;8.60;99.90
5461;DHT22;2753;49.196;8.286;2023-12-22T01:40:59;8.60;99.90
5461;DHT22;2753;49.196;8.286;2023-12-22T01:43:25;8.60;99.90
5461;DHT22;2753;49.196;8.286;2023-12-22T01:45:55;8.50;99.90
5461;DHT22;2753;49.196;8.286;2023-12-22T01:48:22;8.50;99.90
5461;DHT22;2753;49.196;8.286;2023-12-22T01:50:52;8.50;99.90
5461;DHT22;2753;49.196;8.286;2023-12-22T01:53:22;8.50;99.90
5461;DHT22;2753;49.196;8.286;2023-12-22T01:55:50;8.50;99.90
5461;DHT22;2753;49.196;8.286;2023-12-22T01:58:22;8.50;99.90
5461;DHT22;2753;49.196;8.286;2023-12-22T02:00:48;8.50;99.90
5461;DHT22;2753;49.196;8.286;2023-12-22T02:03:17;8.50;99.90
5461;DHT22;2753;49.196;8.286;2023-12-22T02:05:44;8.50;99.90
5461;DHT22;2753;49.196;8.286;2023-12-22T02:08:11;8.50;99.90
5461;DHT22;2753;49.196;8.286;2023-12-22T02:10:37;8.40;99.90
5461;DHT22;2753;49.196;8.286;2023-12-22T02:13:06;8.50;99.90
5461;DHT22;2753;49.196;8.286;2023-12-22T02:15:33;8.50;99.90
5461;DHT22;2753;49.196;8.286;2023-12-22T02:18:19;8.40;99.90
5461;DHT22;2753;49.196;8.286;2023-12-22T02:20:46;8.50;99.90
5461;DHT22;2753;49.196;8.286;2023-12-22T02:23:11;8.40;99.90
5461;DHT22;2753;49.196;8.286;2023-12-22T02:25:37;8.40;99.90
5461;DHT22;2753;49.196;8.286;2023-12-22T02:28:10;8.40;99.90
5461;DHT22;2753;49.196;8.286;2023-12-22T02:33:52;8.40;99.90
5461;DHT22;2753;49.196;8.286;2023-12-22T02:36:21;8.40;99.90
5461;DHT22;2753;49.196;8.286;2023-12-22T02:38:48;8.40;99.90
5461;DHT22;2753;49.196;8.286;2023-12-22T02:41:15;8.40;99.90
5461;DHT22;2753;49.196;8.286;2023-12-22T02:43:41;8.40;99.90
5461;DHT22;2753;49.196;8.286;2023-12-22T02:46:14;8.40;99.90
5461;DHT22;2753;49.196;8.286;2023-12-22T02:48:40;8.40;99.90
5461;DHT22;2753;49.196;8.286;2023-12-22T02:51:06;8.40;99.90
5461;DHT22;2753;49.196;8.286;2023-12-22T02:53:31;8.40;99.90
5461;DHT22;2753;49.196;8.286;2023-12-22T02:55:57;8.40;99.90
5461;DHT22;2753;49.196;8.286;2023-12-22T02:58:23;8.40;99.90
5461;DHT22;2753;49.196;8.286;2023-12-22T03:00:48;8.40;99.90
5461;DHT22;2753;49.196;8.286;2023-12-22T03:03:14;8.50;99.90
5461;DHT22;2753;49.196;8.286;2023-12-22T03:05:40;8.40;99.90
5461;DHT22;2753;49.196;8.286;2023-12-22T03:08:06;8.50;99.90
5461;DHT22;2753;49.196;8.286;2023-12-22T03:10:31;8.50;99.90
5461;DHT22;2753;49.196;8.286;2023-12-22T03:12:57;8.50;99.90
5461;DHT22;2753;49.196;8.286;2023-12-22T03:15:23;8.50;99.90
5461;DHT22;2753;49.196;8.286;2023-12-22T03:17:48;8.50;99.90
5461;DHT22;2753;49.196;8.286;2023-12-22T03:20:14;8.50;99.90
5461;DHT22;2753;49.196;8.286;2023-12-22T03:22:40;8.50;99.90
5461;DHT22;2753;49.196;8.286;2023-12-22T03:25:05;8.50;99.90
5461;DHT22;2753;49.196;8.286;2023-12-22T03:27:31;8.50;99.90
5461;DHT22;2753;49.196;8.286;2023-12-22T03:29:57;8.50;99.90
5461;DHT22;2753;49.196;8.286;2023-12-22T03:32:23;8.50;99.90
5461;DHT22;2753;49.196;8.286;2023-12-22T03:34:49;8.40;99.90
5461;DHT22;2753;49.196;8.286;2023-12-22T03:37:14;8.40;99.90
5461;DHT22;2753;49.196;8.286;2023-12-22T03:39:40;8.40;99.90
5461;DHT22;2753;49.196;8.286;2023-12-22T03:42:06;8.40;99.90
5461;DHT22;2753;49.196;8.286;2023-12-22T03:44:37;8.40;99.90
5461;DHT22;2753;49.196;8.286;2023-12-22T03:47:03;8.40;99.90
5461;DHT22;2753;49.196;8.286;2023-12-22T03:49:28;8.40;99.90
5461;DHT22;2753;49.196;8.286;2023-12-22T03:51:54;8.40;99.90
5461;DHT22;2753;49.196;8.286;2023-12-22T03:54:20;8.30;99.90
5461;DHT22;2753;49.196;8.286;2023-12-22T03:56:46;8.30;99.90
5461;DHT22;2753;49.196;8.286;2023-12-22T03:59:12;8.30;99.90
5461;DHT22;2753;49.196;8.286;2023-12-22T04:01:38;8.30;99.90
5461;DHT22;2753;49.196;8.286;2023-12-22T04:04:04;8.30;99.90
5461;DHT22;2753;49.196;8.286;2023-12-22T04:06:30;8.40;99.90
5461;DHT22;2753;49.196;8.286;2023-12-22T04:08:55;8.40;99.90
5461;DHT22;2753;49.196;8.286;2023-12-22T04:11:21;8.40;99.90
5461;DHT22;2753;49.196;8.286;2023-12-22T04:13:47;8.40;99.90
5461;DHT22;2753;49.196;8.286;2023-12-22T04:16:12;8.40;99.90
5461;DHT22;2753;49.196;8.286;2023-12-22T04:18:38;8.40;99.90
5461;DHT22;2753;49.196;8.286;2023-12-22T04:21:04;8.40;99.90
5461;DHT22;2753;49.196;8.286;2023-12-22T04:23:29;8.40;99.90
5461;DHT22;2753;49.196;8.286;2023-12-22T04:25:55;8.40;99.90
5461;DHT22;2753;49.196;8.286;2023-12-22T04:28:21;8.40;99.90
5461;DHT22;2753;49.196;8.286;2023-12-22T04:30:46;8.40;99.90
5461;DHT22;2753;49.196;8.286;2023-12-22T04:33:12;8.40;99.90
5461;DHT22;2753;49.196;8.286;2023-12-22T04:35:38;8.40;99.90
5461;DHT22;2753;49.196;8.286;2023-12-22T04:38:03;8.40;99.90
5461;DHT22;2753;49.196;8.286;2023-12-22T04:40:29;8.40;99.90
5461;DHT22;2753;49.196;8.286;2023-12-22T04:42:55;8.40;99.90
5461;DHT22;2753;49.196;8.286;2023-12-22T04:45:21;8.40;99.90
5461;DHT22;2753;49.196;8.286;2023-12-22T04:47:46;8.40;99.90
5461;DHT22;2753;49.196;8.286;2023-12-22T04:50:12;8.40;99.90
5461;DHT22;2753;49.196;8.286;2023-12-22T04:52:38;8.40;99.90
5461;DHT22;2753;49.196;8.286;2023-12-22T04:55:03;8.40;99.90
5461;DHT22;2753;49.196;8.286;2023-12-22T04:57:29;8.40;99.90
5461;DHT22;2753;49.196;8.286;2023-12-22T04:59:55;8.40;99.90
5461;DHT22;2753;49.196;8.286;2023-12-22T05:02:20;8.40;99.90
5461;DHT22;2753;49.196;8.286;2023-12-22T05:04:46;8.40;99.90
5461;DHT22;2753;49.196;8.286;2023-12-22T05:07:12;8.40;99.90
5461;DHT22;2753;49.196;8.286;2023-12-22T05:09:37;8.50;99.90
5461;DHT22;2753;49.196;8.286;2023-12-22T05:12:03;8.40;99.90
5461;DHT22;2753;49.196;8.286;2023-12-22T05:14:29;8.40;99.90
5461;DHT22;2753;49.196;8.286;2023-12-22T05:16:54;8.50;99.90
5461;DHT22;2753;49.196;8.286;2023-12-22T05:19:22;8.50;99.90
5461;DHT22;2753;49.196;8.286;2023-12-22T05:21:47;8.40;99.90
5461;DHT22;2753;49.196;8.286;2023-12-22T05:24:15;8.50;99.90
5461;DHT22;2753;49.196;8.286;2023-12-22T05:26:40;8.50;99.90
5461;DHT22;2753;49.196;8.286;2023-12-22T05:29:06;8.50;99.90
5461;DHT22;2753;49.196;8.286;2023-12-22T05:31:33;8.50;99.90
5461;DHT22;2753;49.196;8.286;2023-12-22T05:34:00;8.60;99.90
5461;DHT22;2753;49.196;8.286;2023-12-22T05:36:25;8.50;99.90
5461;DHT22;2753;49.196;8.286;2023-12-22T05:38:51;8.50;99.90
5461;DHT22;2753;49.196;8.286;2023-12-22T05:41:20;8.50;99.90
5461;DHT22;2753;49.196;8.286;2023-12-22T05:43:45;8.50;99.90
5461;DHT22;2753;49.196;8.286;2023-12-22T05:46:11;8.60;99.90
5461;DHT22;2753;49.196;8.286;2023-12-22T05:48:37;8.50;99.90
5461;DHT22;2753;49.196;8.286;2023-12-22T05:51:02;8.60;99.90
5461;DHT22;2753;49.196;8.286;2023-12-22T05:53:29;8.60;99.90
5461;DHT22;2753;49.196;8.286;2023-12-22T05:55:58;8.60;99.90
5461;DHT22;2753;49.196;8.286;2023-12-22T05:58:23;8.50;99.90
5461;DHT22;2753;49.196;8.286;2023-12-22T06:00:49;8.60;99.90
5461;DHT22;2753;49.196;8.286;2023-12-22T06:03:15;8.50;99.90
5461;DHT22;2753;49.196;8.286;2023-12-22T06:05:41;8.60;99.90
5461;DHT22;2753;49.196;8.286;2023-12-22T06:08:06;8.60;99.90
5461;DHT22;2753;49.196;8.286;2023-12-22T06:10:32;8.60;99.90
5461;DHT22;2753;49.196;8.286;2023-12-22T06:12:58;8.60;99.90
5461;DHT22;2753;49.196;8.286;2023-12-22T06:15:25;8.60;99.90
5461;DHT22;2753;49.196;8.286;2023-12-22T06:17:50;8.60;99.90
5461;DHT22;2753;49.196;8.286;2023-12-22T06:20:16;8.50;99.90
5461;DHT22;2753;49.196;8.286;2023-12-22T06:22:42;8.50;99.90
5461;DHT22;2753;49.196;8.286;2023-12-22T06:25:08;8.50;99.90
5461;DHT22;2753;49.196;8.286;2023-12-22T06:27:34;8.50;99.90
5461;DHT22;2753;49.196;8.286;2023-12-22T06:30:00;8.60;99.90
5461;DHT22;2753;49.196;8.286;2023-12-22T06:32:26;8.60;99.90
5461;DHT22;2753;49.196;8.286;2023-12-22T06:34:52;8.60;99.90
5461;DHT22;2753;49.196;8.286;2023-12-22T06:37:17;8.60;99.90
5461;DHT22;2753;49.196;8.286;2023-12-22T06:39:43;8.60;99.90
5461;DHT22;2753;49.196;8.286;2023-12-22T06:42:09;8.60;99.90
5461;DHT22;2753;49.196;8.286;2023-12-22T06:44:37;8.60;99.90
5461;DHT22;2753;49.196;8.286;2023-12-22T06:47:03;8.60;99.90
5461;DHT22;2753;49.196;8.286;2023-12-22T06:49:29;8.60;99.90
5461;DHT22;2753;49.196;8.286;2023-12-22T06:51:54;8.50;99.90
5461;DHT22;2753;49.196;8.286;2023-12-22T06:54:20;8.60;99.90
5461;DHT22;2753;49.196;8.286;2023-12-22T06:56:46;8.50;99.90
5461;DHT22;2753;49.196;8.286;2023-12-22T06:59:11;8.50;99.90
5461;DHT22;2753;49.196;8.286;2023-12-22T07:01:37;8.40;99.90
5461;DHT22;2753;49.196;8.286;2023-12-22T07:04:04;8.40;99.90
5461;DHT22;2753;49.196;8.286;2023-12-22T07:06:34;8.50;99.90
5461;DHT22;2753;49.196;8.286;2023-12-22T07:11:42;8.40;99.90
5461;DHT22;2753;49.196;8.286;2023-12-22T07:14:09;8.40;99.90
5461;DHT22;2753;49.196;8.286;2023-12-22T07:16:36;8.40;99.90
5461;DHT22;2753;49.196;8.286;2023-12-22T07:19:02;8.40;99.90
5461;DHT22;2753;49.196;8.286;2023-12-22T07:21:28;8.40;99.90
5461;DHT22;2753;49.196;8.286;2023-12-22T07:23:54;8.40;99.90
5461;DHT22;2753;49.196;8.286;2023-12-22T07:26:19;8.40;99.90
5461;DHT22;2753;49.196;8.286;2023-12-22T07:28:47;8.40;99.90
5461;DHT22;2753;49.196;8.286;2023-12-22T07:31:14;8.40;99.90
5461;DHT22;2753;49.196;8.286;2023-12-22T07:33:43;8.40;99.90
5461;DHT22;2753;49.196;8.286;2023-12-22T07:36:09;8.40;99.90
5461;DHT22;2753;49.196;8.286;2023-12-22T07:38:36;8.40;99.90
5461;DHT22;2753;49.196;8.286;2023-12-22T07:41:01;8.40;99.90
5461;DHT22;2753;49.196;8.286;2023-12-22T07:43:27;8.40;99.90
5461;DHT22;2753;49.196;8.286;2023-12-22T07:45:55;8.30;99.90
5461;DHT22;2753;49.196;8.286;2023-12-22T07:48:23;8.30;99.90
5461;DHT22;2753;49.196;8.286;2023-12-22T07:50:50;8.40;99.90
5461;DHT22;2753;49.196;8.286;2023-12-22T07:53:16;8.30;99.90
5461;DHT22;2753;49.196;8.286;2023-12-22T07:55:42;8.30;99.90
5461;DHT22;2753;49.196;8.286;2023-12-22T07:58:08;8.40;99.90
5461;DHT22;2753;49.196;8.286;2023-12-22T08:00:34;8.30;99.90
5461;DHT22;2753;49.196;8.286;2023-12-22T08:03:00;8.30;99.90
5461;DHT22;2753;49.196;8.286;2023-12-22T08:05:26;8.30;99.90
5461;DHT22;2753;49.196;8.286;2023-12-22T08:07:52;8.30;99.90
5461;DHT22;2753;49.196;8.286;2023-12-22T08:10:17;8.30;99.90
5461;DHT22;2753;49.196;8.286;2023-12-22T08:12:43;8.30;99.90
5461;DHT22;2753;49.196;8.286;2023-12-22T08:15:09;8.30;99.90
5461;DHT22;2753;49.196;8.286;2023-12-22T08:17:47;8.30;99.90
5461;DHT22;2753;49.196;8.286;2023-12-22T08:20:19;8.30;99.90
5461;DHT22;2753;49.196;8.286;2023-12-22T08:22:46;8.30;99.90
5461;DHT22;2753;49.196;8.286;2023-12-22T08:25:12;8.30;99.90
5461;DHT22;2753;49.196;8.286;2023-12-22T08:27:37;8.30;99.90
5461;DHT22;2753;49.196;8.286;2023-12-22T08:30:06;8.30;99.90
5461;DHT22;2753;49.196;8.286;2023-12-22T08:32:32;8.30;99.90
5461;DHT22;2753;49.196;8.286;2023-12-22T08:34:58;8.30;99.90
5461;DHT22;2753;49.196;8.286;2023-12-22T08:37:24;8.30;99.90
5461;DHT22;2753;49.196;8.286;2023-12-22T08:39:49;8.30;99.90
5461;DHT22;2753;49.196;8.286;2023-12-22T08:42:16;8.30;99.90
5461;DHT22;2753;49.196;8.286;2023-12-22T08:44:42;8.40;99.90
5461;DHT22;2753;49.196;8.286;2023-12-22T08:47:08;8.40;99.90
5461;DHT22;2753;49.196;8.286;2023-12-22T08:49:34;8.40;99.90
5461;DHT22;2753;49.196;8.286;2023-12-22T08:52:00;8.40;99.90
5461;DHT22;2753;49.196;8.286;2023-12-22T08:54:27;8.40;99.90
5461;DHT22;2753;49.196;8.286;2023-12-22T08:56:53;8.50;99.90
5461;DHT22;2753;49.196;8.286;2023-12-22T08:59:18;8.50;99.90
5461;DHT22;2753;49.196;8.286;2023-12-22T09:01:45;8.50;99.90
5461;DHT22;2753;49.196;8.286;2023-12-22T09:04:11;8.50;99.90
5461;DHT22;2753;49.196;8.286;2023-12-22T09:06:37;8.50;99.90
5461;DHT22;2753;49.196;8.286;2023-12-22T09:09:03;8.50;99.90
5461;DHT22;2753;49.196;8.286;2023-12-22T09:11:34;8.50;99.90
5461;DHT22;2753;49.196;8.286;2023-12-22T09:14:00;8.50;99.90
5461;DHT22;2753;49.196;8.286;2023-12-22T09:16:25;8.60;99.90
5461;DHT22;2753;49.196;8.286;2023-12-22T09:18:51;8.60;99.90
5461;DHT22;2753;49.196;8.286;2023-12-22T09:21:18;8.50;99.90
5461;DHT22;2753;49.196;8.286;2023-12-22T09:23:47;8.50;99.90
5461;DHT22;2753;49.196;8.286;2023-12-22T09:26:16;8.50;99.90
5461;DHT22;2753;49.196;8.286;2023-12-22T09:28:42;8.60;99.90
5461;DHT22;2753;49.196;8.286;2023-12-22T09:31:08;8.60;99.90
5461;DHT22;2753;49.196;8.286;2023-12-22T09:33:35;8.50;99.90
5461;DHT22;2753;49.196;8.286;2023-12-22T09:36:00;8.60;99.90
5461;DHT22;2753;49.196;8.286;2023-12-22T09:38:26;8.60;99.90
5461;DHT22;2753;49.196;8.286;2023-12-22T09:40:56;8.60;99.90
5461;DHT22;2753;49.196;8.286;2023-12-22T09:43:22;8.60;99.90
5461;DHT22;2753;49.196;8.286;2023-12-22T09:45:49;8.60;99.90
5461;DHT22;2753;49.196;8.286;2023-12-22T09:48:17;8.60;99.90
5461;DHT22;2753;49.196;8.286;2023-12-22T09:50:44;8.60;99.90
5461;DHT22;2753;49.196;8.286;2023-12-22T09:53:13;8.70;99.90
5461;DHT22;2753;49.196;8.286;2023-12-22T09:55:45;8.60;99.90
5461;DHT22;2753;49.196;8.286;2023-12-22T09:58:13;8.70;99.90
5461;DHT22;2753;49.196;8.286;2023-12-22T10:00:40;8.70;99.90
5461;DHT22;2753;49.196;8.286;2023-12-22T10:03:07;8.70;99.90
5461;DHT22;2753;49.196;8.286;2023-12-22T10:05:33;8.70;99.90
5461;DHT22;2753;49.196;8.286;2023-12-22T10:08:00;8.70;99.90
5461;DHT22;2753;49.196;8.286;2023-12-22T10:10:30;8.70;99.90
5461;DHT22;2753;49.196;8.286;2023-12-22T10:12:56;8.70;99.90
5461;DHT22;2753;49.196;8.286;2023-12-22T10:15:24;8.70;99.90
5461;DHT22;2753;49.196;8.286;2023-12-22T10:17:51;8.70;99.90
5461;DHT22;2753;49.196;8.286;2023-12-22T10:20:17;8.70;99.90
5461;DHT22;2753;49.196;8.286;2023-12-22T10:22:43;8.80;99.90
5461;DHT22;2753;49.196;8.286;2023-12-22T10:25:09;8.80;99.90
5461;DHT22;2753;49.196;8.286;2023-12-22T10:27:37;8.80;99.90
5461;DHT22;2753;49.196;8.286;2023-12-22T10:30:04;8.80;99.90
5461;DHT22;2753;49.196;8.286;2023-12-22T10:32:30;8.80;99.90
5461;DHT22;2753;49.196;8.286;2023-12-22T10:34:58;8.80;99.90
5461;DHT22;2753;49.196;8.286;2023-12-22T10:37:24;8.80;99.90
5461;DHT22;2753;49.196;8.286;2023-12-22T10:39:54;8.80;99.90
5461;DHT22;2753;49.196;8.286;2023-12-22T10:42:20;8.80;99.90
5461;DHT22;2753;49.196;8.286;2023-12-22T10:44:46;8.80;99.90
5461;DHT22;2753;49.196;8.286;2023-12-22T10:47:13;8.80;99.90
5461;DHT22;2753;49.196;8.286;2023-12-22T10:49:39;8.80;99.90
5461;DHT22;2753;49.196;8.286;2023-12-22T10:52:05;8.80;99.90
5461;DHT22;2753;49.196;8.286;2023-12-22T10:54:31;8.80;99.90
5461;DHT22;2753;49.196;8.286;2023-12-22T10:57:00;8.80;99.90
5461;DHT22;2753;49.196;8.286;2023-12-22T10:59:29;8.80;99.90
5461;DHT22;2753;49.196;8.286;2023-12-22T11:01:57;8.80;99.90
5461;DHT22;2753;49.196;8.286;2023-12-22T11:04:28;8.80;99.90
5461;DHT22;2753;49.196;8.286;2023-12-22T11:06:57;8.80;99.90
5461;DHT22;2753;49.196;8.286;2023-12-22T11:09:23;8.80;99.90
5461;DHT22;2753;49.196;8.286;2023-12-22T11:11:53;8.80;99.90
5461;DHT22;2753;49.196;8.286;2023-12-22T11:14:21;8.80;99.90
5461;DHT22;2753;49.196;8.286;2023-12-22T11:16:47;8.70;99.90
5461;DHT22;2753;49.196;8.286;2023-12-22T11:19:14;8.70;99.90
5461;DHT22;2753;49.196;8.286;2023-12-22T11:21:41;8.70;99.90
5461;DHT22;2753;49.196;8.286;2023-12-22T11:24:08;8.70;99.90
5461;DHT22;2753;49.196;8.286;2023-12-22T11:26:35;8.70;99.90
5461;DHT22;2753;49.196;8.286;2023-12-22T11:29:02;8.70;99.90
5461;DHT22;2753;49.196;8.286;2023-12-22T11:31:31;8.70;99.90
5461;DHT22;2753;49.196;8.286;2023-12-22T11:33:58;8.70;99.90
5461;DHT22;2753;49.196;8.286;2023-12-22T11:36:29;8.70;99.90
5461;DHT22;2753;49.196;8.286;2023-12-22T11:38:56;8.70;99.90
5461;DHT22;2753;49.196;8.286;2023-12-22T11:41:25;8.70;99.90
5461;DHT22;2753;49.196;8.286;2023-12-22T11:43:53;8.70;99.90
5461;DHT22;2753;49.196;8.286;2023-12-22T11:46:19;8.70;99.90
5461;DHT22;2753;49.196;8.286;2023-12-22T11:48:52;8.70;99.90
5461;DHT22;2753;49.196;8.286;2023-12-22T11:51:18;8.70;99.90
5461;DHT22;2753;49.196;8.286;2023-12-22T11:53:45;8.70;99.90
5461;DHT22;2753;49.196;8.286;2023-12-22T11:56:11;8.80;99.90
5461;DHT22;2753;49.196;8.286;2023-12-22T11:58:39;8.80;99.90
5461;DHT22;2753;49.196;8.286;2023-12-22T12:01:12;8.80;99.90
5461;DHT22;2753;49.196;8.286;2023-12-22T12:03:47;8.80;99.90
5461;DHT22;2753;49.196;8.286;2023-12-22T12:08:39;8.80;99.90
5461;DHT22;2753;49.196;8.286;2023-12-22T12:11:05;8.80;99.90
5461;DHT22;2753;49.196;8.286;2023-12-22T12:13:33;8.80;99.90
5461;DHT22;2753;49.196;8.286;2023-12-22T12:16:00;8.80;99.90
5461;DHT22;2753;49.196;8.286;2023-12-22T12:18:31;8.80;99.90
5461;DHT22;2753;49.196;8.286;2023-12-22T12:20:57;8.80;99.90
5461;DHT22;2753;49.196;8.286;2023-12-22T12:23:29;8.80;99.90
5461;DHT22;2753;49.196;8.286;2023-12-22T12:25:55;8.80;99.90
5461;DHT22;2753;49.196;8.286;2023-12-22T12:28:32;8.70;99.90
5461;DHT22;2753;49.196;8.286;2023-12-22T12:31:06;8.70;99.90
5461;DHT22;2753;49.196;8.286;2023-12-22T12:33:32;8.70;99.90
5461;DHT22;2753;49.196;8.286;2023-12-22T12:35:59;8.70;99.90
5461;DHT22;2753;49.196;8.286;2023-12-22T12:38:55;8.70;99.90
5461;DHT22;2753;49.196;8.286;2023-12-22T12:41:29;8.70;99.90
5461;DHT22;2753;49.196;8.286;2023-12-22T12:43:56;8.70;99.90
5461;DHT22;2753;49.196;8.286;2023-12-22T12:46:23;8.70;99.90
5461;DHT22;2753;49.196;8.286;2023-12-22T12:48:52;8.80;99.90
5461;DHT22;2753;49.196;8.286;2023-12-22T12:51:27;8.80;99.90
5461;DHT22;2753;49.196;8.286;2023-12-22T12:53:53;8.80;99.90
5461;DHT22;2753;49.196;8.286;2023-12-22T12:56:18;8.80;99.90
5461;DHT22;2753;49.196;8.286;2023-12-22T12:58:47;8.80;99.90
5461;DHT22;2753;49.196;8.286;2023-12-22T13:01:13;8.80;99.90
5461;DHT22;2753;49.196;8.286;2023-12-22T13:03:56;8.80;99.90
5461;DHT22;2753;49.196;8.286;2023-12-22T13:06:23;8.80;99.90
5461;DHT22;2753;49.196;8.286;2023-12-22T13:08:50;8.90;99.90
5461;DHT22;2753;49.196;8.286;2023-12-22T13:11:23;8.90;99.90
5461;DHT22;2753;49.196;8.286;2023-12-22T13:13:50;8.90;99.90
5461;DHT22;2753;49.196;8.286;2023-12-22T13:16:20;9.00;99.90
5461;DHT22;2753;49.196;8.286;2023-12-22T13:18:47;9.00;99.90
5461;DHT22;2753;49.196;8.286;2023-12-22T13:21:13;9.00;99.90
5461;DHT22;2753;49.196;8.286;2023-12-22T13:23:40;9.10;99.90
5461;DHT22;2753;49.196;8.286;2023-12-22T13:26:06;9.20;99.90
5461;DHT22;2753;49.196;8.286;2023-12-22T13:28:31;9.20;99.90
5461;DHT22;2753;49.196;8.286;2023-12-22T13:30:57;9.20;99.90
5461;DHT22;2753;49.196;8.286;2023-12-22T13:33:23;9.20;99.90
5461;DHT22;2753;49.196;8.286;2023-12-22T13:35:57;9.20;99.90
5461;DHT22;2753;49.196;8.286;2023-12-22T13:38:24;9.20;99.90
5461;DHT22;2753;49.196;8.286;2023-12-22T13:40:50;9.30;99.90
5461;DHT22;2753;49.196;8.286;2023-12-22T13:43:15;9.30;99.90
5461;DHT22;2753;49.196;8.286;2023-12-22T13:45:41;9.30;99.90
5461;DHT22;2753;49.196;8.286;2023-12-22T13:48:07;9.40;99.90
5461;DHT22;2753;49.196;8.286;2023-12-22T13:50:33;9.40;99.90
5461;DHT22;2753;49.196;8.286;2023-12-22T13:53:09;9.40;99.90
5461;DHT22;2753;49.196;8.286;2023-12-22T13:55:35;9.40;99.90
5461;DHT22;2753;49.196;8.286;2023-12-22T13:58:02;9.40;99.90
5461;DHT22;2753;49.196;8.286;2023-12-22T14:00:29;9.50;99.90
5461;DHT22;2753;49.196;8.286;2023-12-22T14:02:56;9.50;99.90
5461;DHT22;2753;49.196;8.286;2023-12-22T14:05:22;9.50;99.90
5461;DHT22;2753;49.196;8.286;2023-12-22T14:07:48;9.50;99.90
5461;DHT22;2753;49.196;8.286;2023-12-22T14:10:14;9.50;99.90
5461;DHT22;2753;49.196;8.286;2023-12-22T14:12:40;9.50;99.90
5461;DHT22;2753;49.196;8.286;2023-12-22T14:15:11;9.60;99.90
5461;DHT22;2753;49.196;8.286;2023-12-22T14:17:37;9.60;99.90
5461;DHT22;2753;49.196;8.286;2023-12-22T14:20:03;9.60;99.90
5461;DHT22;2753;49.196;8.286;2023-12-22T14:22:35;9.60;99.90
5461;DHT22;2753;49.196;8.286;2023-12-22T14:25:01;9.50;99.90
5461;DHT22;2753;49.196;8.286;2023-12-22T14:27:27;9.60;99.90
5461;DHT22;2753;49.196;8.286;2023-12-22T14:29:52;9.60;99.90
5461;DHT22;2753;49.196;8.286;2023-12-22T14:32:18;9.60;99.90
5461;DHT22;2753;49.196;8.286;2023-12-22T14:34:46;9.60;99.90
5461;DHT22;2753;49.196;8.286;2023-12-22T14:37:12;9.60;99.90
5461;DHT22;2753;49.196;8.286;2023-12-22T14:39:39;9.60;99.90
5461;DHT22;2753;49.196;8.286;2023-12-22T14:42:04;9.60;99.90
5461;DHT22;2753;49.196;8.286;2023-12-22T14:44:30;9.60;99.90
5461;DHT22;2753;49.196;8.286;2023-12-22T14:46:56;9.60;99.90
5461;DHT22;2753;49.196;8.286;2023-12-22T14:49:22;9.60;99.90
5461;DHT22;2753;49.196;8.286;2023-12-22T14:51:47;9.60;99.90
5461;DHT22;2753;49.196;8.286;2023-12-22T14:54:17;9.70;99.90
5461;DHT22;2753;49.196;8.286;2023-12-22T14:56:43;9.60;99.90
5461;DHT22;2753;49.196;8.286;2023-12-22T14:59:12;9.70;99.90
5461;DHT22;2753;49.196;8.286;2023-12-22T15:01:40;9.70;99.90
5461;DHT22;2753;49.196;8.286;2023-12-22T15:04:06;9.70;99.90
5461;DHT22;2753;49.196;8.286;2023-12-22T15:06:32;9.70;99.90
5461;DHT22;2753;49.196;8.286;2023-12-22T15:08:58;9.80;99.90
5461;DHT22;2753;49.196;8.286;2023-12-22T15:11:26;9.80;99.90
5461;DHT22;2753;49.196;8.286;2023-12-22T15:13:52;9.80;99.90
5461;DHT22;2753;49.196;8.286;2023-12-22T15:16:18;9.80;99.90
5461;DHT22;2753;49.196;8.286;2023-12-22T15:18:43;9.80;99.90
5461;DHT22;2753;49.196;8.286;2023-12-22T15:21:09;9.80;99.90
5461;DHT22;2753;49.196;8.286;2023-12-22T15:23:35;9.80;99.90
5461;DHT22;2753;49.196;8.286;2023-12-22T15:26:04;9.80;99.90
5461;DHT22;2753;49.196;8.286;2023-12-22T15:28:30;9.80;99.90
5461;DHT22;2753;49.196;8.286;2023-12-22T15:30:56;9.80;99.90
5461;DHT22;2753;49.196;8.286;2023-12-22T15:33:21;9.80;99.90
5461;DHT22;2753;49.196;8.286;2023-12-22T15:35:47;9.80;99.90
5461;DHT22;2753;49.196;8.286;2023-12-22T15:38:14;9.80;99.90
5461;DHT22;2753;49.196;8.286;2023-12-22T15:40:40;9.80;99.90
5461;DHT22;2753;49.196;8.286;2023-12-22T15:43:05;9.90;99.90
5461;DHT22;2753;49.196;8.286;2023-12-22T15:45:31;9.90;99.90
5461;DHT22;2753;49.196;8.286;2023-12-22T15:47:57;9.80;99.90
5461;DHT22;2753;49.196;8.286;2023-12-22T15:50:22;9.80;99.90
5461;DHT22;2753;49.196;8.286;2023-12-22T15:52:48;9.80;99.90
5461;DHT22;2753;49.196;8.286;2023-12-22T15:55:16;9.90;99.90
5461;DHT22;2753;49.196;8.286;2023-12-22T15:57:41;9.90;99.90
5461;DHT22;2753;49.196;8.286;2023-12-22T16:00:08;9.90;99.90
5461;DHT22;2753;49.196;8.286;2023-12-22T16:02:33;9.90;99.90
5461;DHT22;2753;49.196;8.286;2023-12-22T16:05:04;9.90;99.90
5461;DHT22;2753;49.196;8.286;2023-12-22T16:07:29;9.90;99.90
5461;DHT22;2753;49.196;8.286;2023-12-22T16:09:55;9.90;99.90
5461;DHT22;2753;49.196;8.286;2023-12-22T16:12:21;9.90;99.90
5461;DHT22;2753;49.196;8.286;2023-12-22T16:14:47;9.90;99.90
5461;DHT22;2753;49.196;8.286;2023-12-22T16:17:13;9.90;99.90
5461;DHT22;2753;49.196;8.286;2023-12-22T16:19:39;9.90;99.90
5461;DHT22;2753;49.196;8.286;2023-12-22T16:22:06;9.90;99.90